Time;durP1;ratioP1;P1;durP2;ratioP2;P2;SDS_P1;SDS_P2;PMS_P1;PMS_P2;Temp;Humidity;BMP_temperature;BMP_pressure;BME280_temperature;BME280_humidity;BME280_pressure;Samples;Min_cycle;Max_cycle;Signal;HPM_P1;HPM_P2
2021/11/09 00:02:18;;;;;;;8.30;3.40;;;7.80;99.90;;;;;;6145294;23;20234;-79
2021/11/09 00:04:49;;;;;;;9.83;3.73;;;7.80;99.90;;;;;;6144989;23;20183;-80
2021/11/09 00:10:06;;;;;;;5.73;3.70;;;7.80;99.90;;;;;;6156891;23;20151;-79
2021/11/09 00:12:38;;;;;;;7.97;3.17;;;7.70;99.90;;;;;;6145392;23;20206;-80
2021/11/09 00:15:06;;;;;;;6.17;3.03;;;7.70;99.90;;;;;;6147012;23;20239;-80
2021/11/09 00:17:32;;;;;;;6.27;3.00;;;7.70;99.90;;;;;;6145139;23;20167;-80
2021/11/09 00:19:58;;;;;;;6.97;3.20;;;7.80;99.90;;;;;;6144793;23;20170;-78
2021/11/09 00:22:25;;;;;;;7.67;3.20;;;7.70;99.90;;;;;;6146741;23;20250;-80
2021/11/09 00:24:52;;;;;;;7.23;2.90;;;7.70;99.90;;;;;;6144809;23;20245;-79
2021/11/09 00:27:18;;;;;;;5.30;2.97;;;7.70;99.90;;;;;;6144164;23;20774;-79
2021/11/09 00:29:45;;;;;;;7.80;3.00;;;7.70;99.90;;;;;;6145242;23;20210;-79
2021/11/09 00:32:10;;;;;;;5.63;2.87;;;7.70;99.90;;;;;;6146675;23;20199;-79
2021/11/09 00:34:36;;;;;;;3.50;2.50;;;7.70;99.90;;;;;;6146938;23;20579;-79
2021/11/09 00:37:04;;;;;;;6.93;3.47;;;7.70;99.90;;;;;;6144921;23;20159;-79
2021/11/09 00:39:30;;;;;;;8.37;2.93;;;7.70;99.90;;;;;;6146509;23;20170;-79
2021/11/09 00:41:56;;;;;;;5.03;2.50;;;7.70;99.90;;;;;;6144913;23;20198;-79
2021/11/09 00:44:23;;;;;;;6.73;2.17;;;7.80;99.90;;;;;;6146807;23;20182;-79
2021/11/09 00:46:49;;;;;;;4.90;2.20;;;7.80;99.90;;;;;;6148376;23;20155;-79
2021/11/09 00:49:15;;;;;;;8.70;2.33;;;7.80;99.90;;;;;;6146898;23;20644;-79
2021/11/09 00:51:40;;;;;;;4.07;2.17;;;7.80;99.90;;;;;;6147021;23;20259;-79
2021/11/09 00:54:07;;;;;;;5.43;2.17;;;7.80;99.90;;;;;;6148773;23;20245;-79
2021/11/09 00:56:33;;;;;;;4.83;2.10;;;7.80;99.90;;;;;;6148243;23;20156;-79
2021/11/09 00:58:59;;;;;;;5.73;2.10;;;7.80;99.90;;;;;;6148574;23;20163;-79
2021/11/09 01:01:24;;;;;;;4.43;2.30;;;7.80;99.90;;;;;;6146378;23;20166;-79
2021/11/09 01:03:50;;;;;;;4.70;2.17;;;7.80;99.90;;;;;;6146819;23;20202;-79
2021/11/09 01:06:16;;;;;;;3.93;2.40;;;7.80;99.90;;;;;;6146435;23;20586;-79
2021/11/09 01:08:42;;;;;;;6.40;2.37;;;7.80;99.90;;;;;;6142687;23;20148;-79
2021/11/09 01:11:08;;;;;;;8.23;2.37;;;7.70;99.90;;;;;;6140118;23;20183;-79
2021/11/09 01:13:34;;;;;;;6.60;2.50;;;7.70;99.90;;;;;;6145212;23;20214;-79
2021/11/09 01:15:59;;;;;;;5.30;2.10;;;7.70;99.90;;;;;;6146103;23;20159;-79
2021/11/09 01:18:36;;;;;;;5.07;2.40;;;7.70;99.90;;;;;;6146757;23;20270;-79
2021/11/09 01:21:03;;;;;;;3.07;1.80;;;7.70;99.90;;;;;;6146629;23;20163;-78
2021/11/09 01:23:30;;;;;;;5.30;2.00;;;7.70;99.90;;;;;;6146516;23;20242;-78
2021/11/09 01:25:56;;;;;;;7.57;2.80;;;7.80;99.90;;;;;;6146286;23;20484;-79
2021/11/09 01:28:22;;;;;;;3.60;2.00;;;7.80;99.90;;;;;;6146901;23;20214;-79
2021/11/09 01:30:48;;;;;;;4.97;2.33;;;7.80;99.90;;;;;;6146374;23;20607;-80
2021/11/09 01:33:14;;;;;;;3.17;1.97;;;7.80;99.90;;;;;;6146389;23;20274;-79
2021/11/09 01:35:40;;;;;;;4.87;2.27;;;7.80;99.90;;;;;;6148288;23;20155;-79
2021/11/09 01:38:07;;;;;;;5.63;2.00;;;7.80;99.90;;;;;;6146108;23;20159;-79
2021/11/09 01:40:35;;;;;;;6.50;2.37;;;7.80;99.90;;;;;;6148117;23;20151;-80
2021/11/09 01:43:01;;;;;;;5.33;1.80;;;7.80;99.90;;;;;;6146540;23;20206;-79
2021/11/09 01:45:27;;;;;;;4.53;2.37;;;7.80;99.90;;;;;;6148050;23;20239;-79
2021/11/09 01:47:53;;;;;;;7.30;2.33;;;7.80;99.90;;;;;;6146438;23;20596;-79
2021/11/09 01:50:27;;;;;;;7.90;2.43;;;7.80;99.90;;;;;;6147886;23;20151;-79
2021/11/09 01:52:53;;;;;;;3.93;2.47;;;7.80;99.90;;;;;;6148015;23;20218;-79
2021/11/09 01:55:21;;;;;;;4.53;2.33;;;7.80;99.90;;;;;;6146271;23;20198;-78
2021/11/09 01:57:47;;;;;;;10.43;2.70;;;7.80;99.90;;;;;;6145741;23;20168;-79
2021/11/09 02:00:18;;;;;;;6.47;2.60;;;7.80;99.90;;;;;;6146229;23;20247;-79
2021/11/09 02:02:45;;;;;;;6.70;2.70;;;7.80;99.90;;;;;;6146409;23;20175;-79
2021/11/09 02:05:12;;;;;;;3.40;1.83;;;7.80;99.90;;;;;;6146392;23;20222;-80
2021/11/09 02:07:47;;;;;;;3.87;1.90;;;7.80;99.90;;;;;;6146167;23;20164;-78
2021/11/09 02:10:13;;;;;;;7.50;2.63;;;7.80;99.90;;;;;;6146210;23;20170;-80
2021/11/09 02:12:40;;;;;;;6.17;2.37;;;7.80;99.90;;;;;;6146063;23;20168;-79
2021/11/09 02:15:07;;;;;;;5.50;2.37;;;7.80;99.90;;;;;;6147830;23;20226;-78
2021/11/09 02:17:36;;;;;;;8.20;2.67;;;7.80;99.90;;;;;;6146007;23;20642;-79
2021/11/09 02:20:04;;;;;;;4.57;2.83;;;7.80;99.90;;;;;;6147612;23;20168;-79
2021/11/09 02:22:32;;;;;;;5.97;2.60;;;7.80;99.90;;;;;;6146525;23;20251;-79
2021/11/09 02:24:57;;;;;;;6.10;2.57;;;7.80;99.90;;;;;;6145661;23;20183;-79
2021/11/09 02:27:23;;;;;;;6.77;2.73;;;7.90;99.90;;;;;;6147506;23;20746;-79
2021/11/09 02:29:49;;;;;;;7.53;2.63;;;7.90;99.90;;;;;;6147219;23;20166;-79
2021/11/09 02:32:14;;;;;;;6.40;2.67;;;7.90;99.90;;;;;;6146005;23;20691;-79
2021/11/09 02:34:40;;;;;;;7.10;2.37;;;7.90;99.90;;;;;;6146076;23;20210;-79
2021/11/09 02:37:06;;;;;;;4.13;2.50;;;7.90;99.90;;;;;;6146171;23;20202;-79
2021/11/09 02:39:31;;;;;;;5.63;2.43;;;7.80;99.90;;;;;;6146078;23;20163;-79
2021/11/09 02:41:57;;;;;;;6.23;2.17;;;7.80;99.90;;;;;;6146272;23;20171;-79
2021/11/09 02:44:26;;;;;;;5.67;2.40;;;7.80;99.90;;;;;;6145980;23;20230;-78
2021/11/09 02:46:54;;;;;;;6.00;2.37;;;7.80;99.90;;;;;;6146005;23;20164;-79
2021/11/09 02:49:28;;;;;;;6.17;2.37;;;7.80;99.90;;;;;;6146070;23;20159;-79
2021/11/09 02:52:01;;;;;;;4.57;2.50;;;7.70;99.90;;;;;;6147569;23;20532;-78
2021/11/09 02:54:32;;;;;;;5.03;2.03;;;7.60;99.90;;;;;;6147655;23;20171;-79
2021/11/09 02:57:04;;;;;;;5.77;2.80;;;7.80;99.90;;;;;;6147607;23;20144;-79
2021/11/09 03:12:21;;;;;;;7.50;2.63;;;7.70;99.90;;;;;;6147983;23;20163;-80
2021/11/09 03:14:48;;;;;;;7.43;2.57;;;7.90;99.90;;;;;;6145788;23;20655;-79
2021/11/09 03:17:20;;;;;;;8.70;3.10;;;7.90;99.90;;;;;;6145786;23;20214;-79
2021/11/09 03:44:19;;;;;;;5.13;2.10;;;7.60;99.90;;;;;;6147149;23;20198;-79
2021/11/09 03:46:52;;;;;;;6.47;3.07;;;7.50;99.90;;;;;;6145641;23;20152;-79
2021/11/09 03:49:19;;;;;;;12.90;2.60;;;7.50;99.90;;;;;;6145763;23;20148;-79
2021/11/09 03:51:45;;;;;;;5.23;2.30;;;7.40;99.90;;;;;;6147204;23;20278;-78
2021/11/09 03:54:13;;;;;;;6.07;2.57;;;7.40;99.90;;;;;;6146721;23;20186;-78
2021/11/09 03:56:45;;;;;;;5.50;2.90;;;7.40;99.90;;;;;;6145483;23;20614;-79
2021/11/09 03:59:16;;;;;;;3.37;2.00;;;7.30;99.90;;;;;;6147031;23;20136;-78
2021/11/09 04:02:05;;;;;;;3.83;2.60;;;7.40;99.90;;;;;;6147034;23;20211;-79
2021/11/09 04:04:44;;;;;;;6.23;2.47;;;7.40;99.90;;;;;;6146864;23;20658;-78
2021/11/09 04:07:13;;;;;;;6.17;2.23;;;7.40;99.90;;;;;;6145850;23;20140;-77
2021/11/09 04:10:09;;;;;;;4.83;2.30;;;7.50;99.90;;;;;;6145468;23;20163;-77
2021/11/09 04:15:23;;;;;;;3.70;2.17;;;7.40;99.90;;;;;;6146865;23;20198;-79
2021/11/09 04:30:54;;;;;;;4.23;1.77;;;7.40;99.90;;;;;;6146726;23;20175;-77
2021/11/09 04:49:17;;;;;;;4.17;2.10;;;7.70;99.90;;;;;;6157192;23;20170;-78
2021/11/09 05:02:51;;;;;;;5.43;2.80;;;7.90;99.90;;;;;;6147001;23;20641;-79
2021/11/09 05:10:47;;;;;;;7.37;2.77;;;7.60;99.90;;;;;;6146749;23;20143;-80
2021/11/09 05:13:13;;;;;;;6.07;2.80;;;7.60;99.90;;;;;;6150748;23;20184;-80
2021/11/09 05:15:39;;;;;;;5.47;3.13;;;7.60;99.90;;;;;;6145177;23;20168;-78
2021/11/09 05:18:05;;;;;;;6.50;3.00;;;7.50;99.90;;;;;;6145234;23;20159;-79
2021/11/09 05:20:31;;;;;;;4.70;2.97;;;7.50;99.90;;;;;;6144365;23;20163;-79
2021/11/09 05:22:58;;;;;;;8.50;3.10;;;7.50;99.90;;;;;;6145687;23;20191;-77
2021/11/09 05:25:25;;;;;;;6.03;3.37;;;7.60;99.90;;;;;;6146889;23;20618;-78
2021/11/09 05:27:51;;;;;;;5.87;3.43;;;7.50;99.90;;;;;;6146282;23;20239;-78
2021/11/09 05:30:17;;;;;;;7.33;3.70;;;7.50;99.90;;;;;;6145833;23;20190;-79
2021/11/09 05:32:44;;;;;;;4.57;3.40;;;7.50;99.90;;;;;;6145977;23;20159;-78
2021/11/09 05:35:12;;;;;;;5.33;3.73;;;7.50;99.90;;;;;;6146698;23;20196;-79
2021/11/09 05:37:44;;;;;;;6.13;3.60;;;7.50;99.90;;;;;;6148008;23;20159;-78
2021/11/09 05:40:11;;;;;;;7.20;3.50;;;7.50;99.90;;;;;;6148547;23;20577;-77
2021/11/09 05:42:37;;;;;;;6.37;3.97;;;7.60;99.90;;;;;;6146641;23;20302;-78
2021/11/09 05:45:05;;;;;;;8.37;3.83;;;7.50;99.90;;;;;;6147023;23;20210;-79
2021/11/09 05:47:31;;;;;;;10.60;4.10;;;7.60;99.90;;;;;;6147889;23;20643;-78
2021/11/09 05:49:57;;;;;;;7.03;3.87;;;7.50;99.90;;;;;;6148194;23;20156;-79
2021/11/09 05:52:22;;;;;;;5.87;3.90;;;7.60;99.90;;;;;;6146620;23;20218;-79
2021/11/09 05:54:48;;;;;;;8.40;3.60;;;7.60;99.90;;;;;;6146607;23;20244;-78
2021/11/09 05:57:14;;;;;;;5.60;3.30;;;7.60;99.90;;;;;;6146521;23;20166;-79
2021/11/09 05:59:40;;;;;;;5.90;3.63;;;7.60;99.90;;;;;;6148071;23;20148;-78
2021/11/09 06:02:06;;;;;;;9.30;3.57;;;7.60;99.90;;;;;;6146465;23;20170;-79
2021/11/09 06:04:31;;;;;;;5.87;3.90;;;7.60;99.90;;;;;;6146448;23;20262;-78
2021/11/09 06:06:57;;;;;;;8.60;4.53;;;7.60;99.90;;;;;;6148029;23;20253;-78
2021/11/09 06:09:22;;;;;;;5.43;4.33;;;7.60;99.90;;;;;;6147708;23;20162;-78
2021/11/09 06:11:48;;;;;;;8.40;4.20;;;7.60;99.90;;;;;;6146489;23;20163;-78
2021/11/09 06:14:14;;;;;;;8.20;4.30;;;7.60;99.90;;;;;;6147715;23;20577;-78
2021/11/09 06:16:39;;;;;;;7.90;4.43;;;7.60;99.90;;;;;;6147661;23;20207;-77
2021/11/09 06:19:06;;;;;;;4.37;3.37;;;7.60;99.90;;;;;;6146329;23;20223;-79
2021/11/09 06:21:32;;;;;;;10.00;4.17;;;7.60;99.90;;;;;;6146064;23;20254;-78
2021/11/09 06:23:58;;;;;;;6.07;3.90;;;7.70;99.90;;;;;;6146266;23;20586;-78
2021/11/09 06:26:24;;;;;;;7.10;3.60;;;7.70;99.90;;;;;;6147698;23;20152;-78
2021/11/09 06:28:55;;;;;;;5.87;3.70;;;7.70;99.90;;;;;;6146532;23;20164;-79
2021/11/09 06:31:21;;;;;;;7.37;3.93;;;7.70;99.90;;;;;;6147762;23;20595;-79
2021/11/09 06:33:47;;;;;;;6.77;3.30;;;7.70;99.90;;;;;;6147959;23;20254;-78
2021/11/09 06:36:12;;;;;;;7.80;3.87;;;7.70;99.90;;;;;;6147499;23;20592;-78
2021/11/09 06:38:38;;;;;;;6.07;3.73;;;7.80;99.90;;;;;;6146339;23;20159;-78
2021/11/09 06:41:04;;;;;;;8.40;4.33;;;7.80;99.90;;;;;;6147500;23;21017;-78
2021/11/09 06:43:29;;;;;;;5.40;3.40;;;7.90;99.90;;;;;;6145602;23;20201;-78
2021/11/09 06:45:56;;;;;;;7.60;3.53;;;7.80;99.90;;;;;;6147293;23;20233;-79
2021/11/09 06:48:25;;;;;;;8.73;3.97;;;7.80;99.90;;;;;;6146053;23;20651;-79
2021/11/09 06:50:52;;;;;;;6.73;3.57;;;7.80;99.90;;;;;;6147708;23;20195;-78
2021/11/09 06:53:18;;;;;;;5.57;3.83;;;7.80;99.90;;;;;;6145883;23;20183;-78
2021/11/09 06:55:44;;;;;;;8.77;4.10;;;7.70;99.90;;;;;;6147437;23;20163;-78
2021/11/09 06:58:10;;;;;;;8.40;4.20;;;7.70;99.90;;;;;;6138795;23;20167;-79
2021/11/09 07:00:36;;;;;;;8.93;4.40;;;7.80;99.90;;;;;;6144807;23;20169;-78
2021/11/09 07:03:02;;;;;;;8.00;4.73;;;7.80;99.90;;;;;;6146609;23;20183;-78
2021/11/09 07:05:28;;;;;;;7.83;3.60;;;7.80;99.90;;;;;;6143774;23;20206;-77
2021/11/09 07:07:54;;;;;;;9.97;4.37;;;7.80;99.90;;;;;;6145949;23;20164;-79
2021/11/09 07:10:20;;;;;;;8.27;4.40;;;7.90;99.90;;;;;;6145199;23;20167;-80
2021/11/09 07:12:46;;;;;;;7.90;4.07;;;7.90;99.90;;;;;;6145297;23;20164;-79
2021/11/09 07:15:13;;;;;;;6.97;3.80;;;7.90;99.90;;;;;;6145681;23;20724;-78
2021/11/09 07:17:40;;;;;;;7.23;3.63;;;7.90;99.90;;;;;;6145136;23;20247;-78
2021/11/09 07:20:10;;;;;;;10.20;4.40;;;7.90;99.90;;;;;;6146980;23;20316;-77
2021/11/09 07:22:36;;;;;;;7.13;3.93;;;8.00;99.90;;;;;;6145104;23;20326;-79
2021/11/09 07:25:02;;;;;;;7.40;4.03;;;8.00;99.90;;;;;;6145488;23;20211;-80
2021/11/09 07:27:28;;;;;;;8.07;3.97;;;8.00;99.90;;;;;;6144925;23;20155;-80
2021/11/09 07:29:55;;;;;;;6.93;3.90;;;8.10;99.90;;;;;;6145270;23;20159;-76
2021/11/09 07:32:21;;;;;;;8.97;3.63;;;8.00;99.90;;;;;;6143385;23;20163;-79
2021/11/09 07:34:47;;;;;;;9.97;4.13;;;8.00;99.90;;;;;;6141343;23;20226;-79
2021/11/09 07:37:13;;;;;;;11.37;4.27;;;8.00;99.90;;;;;;6142579;23;20159;-79
2021/11/09 07:39:40;;;;;;;8.53;4.43;;;8.00;99.90;;;;;;6141731;23;20191;-79
2021/11/09 07:42:06;;;;;;;7.90;4.23;;;8.00;99.90;;;;;;6144276;23;20151;-78
2021/11/09 07:44:33;;;;;;;8.30;4.00;;;8.10;99.90;;;;;;6142492;23;20647;-80
2021/11/09 07:46:58;;;;;;;9.90;4.27;;;8.10;99.90;;;;;;6146201;23;20163;-79
2021/11/09 07:49:24;;;;;;;9.47;3.70;;;8.10;99.90;;;;;;6141960;23;20615;-79
2021/11/09 07:51:50;;;;;;;7.87;3.97;;;8.10;99.90;;;;;;6143227;23;20631;-79
2021/11/09 07:54:22;;;;;;;5.17;3.60;;;8.10;99.90;;;;;;6142211;23;20191;-80
2021/11/09 07:56:48;;;;;;;9.97;3.77;;;8.10;99.90;;;;;;6141798;23;20151;-78
2021/11/09 07:59:59;;;;;;;8.43;3.60;;;8.10;99.90;;;;;;6141406;23;20167;-79
2021/11/09 08:02:06;;;;;;;9.43;4.33;;;8.10;99.90;;;;;;6138024;23;20162;-78
2021/11/09 08:09:38;;;;;;;7.80;3.83;;;8.20;99.90;;;;;;6155053;23;20166;-79
2021/11/09 08:12:05;;;;;;;10.33;4.87;;;8.30;99.90;;;;;;6143984;23;20604;-78
2021/11/09 08:14:31;;;;;;;8.13;4.63;;;8.30;99.90;;;;;;6142206;23;20206;-78
2021/11/09 08:16:58;;;;;;;10.47;4.13;;;8.40;99.90;;;;;;6142367;23;20523;-79
2021/11/09 08:19:23;;;;;;;7.20;4.10;;;8.40;99.90;;;;;;6144029;23;20155;-79
2021/11/09 08:21:55;;;;;;;9.67;4.70;;;8.50;99.90;;;;;;6144415;23;20166;-79
2021/11/09 08:24:22;;;;;;;5.57;4.03;;;8.50;99.90;;;;;;6143840;23;20528;-79
2021/11/09 08:26:49;;;;;;;9.23;4.63;;;8.60;99.90;;;;;;6142872;23;20159;-79
2021/11/09 08:29:15;;;;;;;6.27;4.07;;;8.60;99.90;;;;;;6142609;23;20182;-79
2021/11/09 08:31:46;;;;;;;7.67;4.37;;;8.60;99.90;;;;;;6144283;23;20456;-79
2021/11/09 08:34:12;;;;;;;6.67;3.17;;;8.70;99.90;;;;;;6144225;23;20194;-79
2021/11/09 08:36:42;;;;;;;9.20;3.93;;;8.70;99.90;;;;;;6142327;23;20198;-79
2021/11/09 08:39:09;;;;;;;7.53;3.90;;;8.80;99.90;;;;;;6144301;23;20210;-79
2021/11/09 08:41:44;;;;;;;7.83;3.47;;;8.80;99.90;;;;;;6143939;23;20159;-80
2021/11/09 08:44:15;;;;;;;7.23;2.80;;;8.90;99.90;;;;;;6142205;23;20202;-79
2021/11/09 08:46:44;;;;;;;7.40;3.30;;;9.00;99.90;;;;;;6142284;23;20155;-78
2021/11/09 08:49:13;;;;;;;6.03;3.40;;;9.00;99.90;;;;;;6144433;23;20582;-78
2021/11/09 08:51:40;;;;;;;5.63;2.97;;;9.10;99.90;;;;;;6142871;23;20186;-79
2021/11/09 08:54:17;;;;;;;6.40;2.80;;;9.20;99.90;;;;;;6142839;23;20317;-78
2021/11/09 09:04:48;;;;;;;26.10;6.33;;;9.40;99.90;;;;;;6144921;23;20677;-82
2021/11/09 09:07:14;;;;;;;5.87;2.63;;;9.40;99.90;;;;;;6145464;23;20170;-79
2021/11/09 09:09:39;;;;;;;6.93;3.07;;;9.50;99.90;;;;;;6146541;23;21069;-79
2021/11/09 09:12:05;;;;;;;6.57;2.60;;;9.50;99.90;;;;;;6145122;23;20171;-78
2021/11/09 09:14:31;;;;;;;33.83;6.87;;;9.50;99.90;;;;;;6144676;23;20246;-78
2021/11/09 09:16:58;;;;;;;15.77;4.73;;;9.50;99.90;;;;;;6145612;23;20190;-80
2021/11/09 09:19:31;;;;;;;9.10;2.70;;;9.60;99.90;;;;;;6152518;23;20561;-80
2021/11/09 09:22:10;;;;;;;6.00;2.37;;;9.60;99.90;;;;;;6153403;23;20160;-79
2021/11/09 09:28:04;;;;;;;20.40;4.00;;;9.70;99.90;;;;;;6129757;23;20163;-79
2021/11/09 09:33:05;;;;;;;4.40;2.17;;;9.70;99.90;;;;;;6154365;23;20171;-79
2021/11/09 09:57:14;;;;;;;6.00;3.83;;;10.20;99.90;;;;;;6145686;23;20160;-80
2021/11/09 09:59:42;;;;;;;6.47;3.40;;;10.30;99.90;;;;;;6144935;23;20428;-80
2021/11/09 10:02:27;;;;;;;7.03;4.03;;;10.50;99.90;;;;;;6145092;23;20187;-79
2021/11/09 10:05:00;;;;;;;8.47;2.97;;;10.40;99.90;;;;;;6144352;23;20216;-80
2021/11/09 10:07:39;;;;;;;8.17;3.60;;;10.40;99.90;;;;;;6146190;23;20194;-81
2021/11/09 10:10:10;;;;;;;8.00;4.10;;;10.40;99.90;;;;;;6145954;23;20140;-79
2021/11/09 10:12:38;;;;;;;6.00;3.50;;;10.40;99.90;;;;;;6143804;23;20178;-79
2021/11/09 10:15:16;;;;;;;6.70;3.97;;;10.40;99.90;;;;;;6145774;23;20163;-79
2021/11/09 10:17:53;;;;;;;7.60;4.50;;;10.40;99.90;;;;;;6152443;23;20154;-77
2021/11/09 10:20:20;;;;;;;8.57;4.40;;;10.60;99.90;;;;;;6152782;23;20491;-79
2021/11/09 10:22:50;;;;;;;9.60;4.20;;;10.60;99.90;;;;;;6152312;23;20427;-79
2021/11/09 10:25:18;;;;;;;7.60;4.20;;;10.60;99.90;;;;;;6153061;23;20598;-78
2021/11/09 10:27:47;;;;;;;7.73;4.37;;;10.70;99.90;;;;;;6151694;23;20914;-78
2021/11/09 10:30:17;;;;;;;8.07;3.92;;;10.70;99.90;;;;;;6151809;23;20156;-77
2021/11/09 10:32:45;;;;;;;10.00;4.15;;;10.90;99.90;;;;;;6152523;23;20211;-78
2021/11/09 10:35:12;;;;;;;7.53;4.05;;;10.90;99.90;;;;;;6151661;23;20243;-79
2021/11/09 10:37:40;;;;;;;5.40;4.10;;;10.90;99.90;;;;;;6144526;23;20164;-80
2021/11/09 10:40:13;;;;;;;7.75;4.25;;;11.00;99.90;;;;;;6145686;23;20187;-80
2021/11/09 10:42:41;;;;;;;8.68;5.30;;;11.00;99.90;;;;;;6145115;23;20179;-79
2021/11/09 10:45:10;;;;;;;9.93;6.22;;;11.00;99.90;;;;;;6148449;23;20151;-79
2021/11/09 10:47:41;;;;;;;12.05;7.05;;;11.10;99.90;;;;;;6148979;23;20174;-78
2021/11/09 10:50:22;;;;;;;13.32;7.05;;;11.00;99.90;;;;;;6151658;23;20292;-79
2021/11/09 10:53:24;;;;;;;13.65;6.68;;;11.00;99.90;;;;;;6152263;23;20140;-77
2021/11/09 10:56:18;;;;;;;11.52;7.03;;;11.00;99.90;;;;;;6152182;23;20195;-78
2021/11/09 10:59:02;;;;;;;17.10;7.90;;;11.00;99.90;;;;;;6151807;23;20140;-78
2021/11/09 11:06:30;;;;;;;13.90;7.25;;;11.20;99.90;;;;;;6146863;23;20152;-79
2021/11/09 11:09:11;;;;;;;16.42;8.25;;;11.20;99.90;;;;;;6145721;23;20144;-79
2021/11/09 11:11:55;;;;;;;13.10;8.60;;;11.20;99.90;;;;;;6149000;23;20568;-78
2021/11/09 11:14:23;;;;;;;16.65;7.43;;;11.20;99.90;;;;;;6150427;23;20205;-77
2021/11/09 11:16:59;;;;;;;14.40;7.68;;;11.30;99.90;;;;;;6150056;23;20209;-80
2021/11/09 11:19:40;;;;;;;13.68;7.00;;;11.30;99.90;;;;;;6146895;23;20139;-80
2021/11/09 11:22:08;;;;;;;11.60;6.93;;;11.40;99.90;;;;;;6148984;23;20144;-78
2021/11/09 11:24:35;;;;;;;14.23;7.35;;;11.40;99.90;;;;;;6148633;23;20222;-82
2021/11/09 11:27:01;;;;;;;11.70;7.10;;;11.40;99.90;;;;;;6145522;23;20517;-80
2021/11/09 11:29:31;;;;;;;13.02;7.18;;;11.40;99.90;;;;;;6145590;23;20660;-78
2021/11/09 11:31:57;;;;;;;11.85;6.68;;;11.50;99.90;;;;;;6145271;23;20180;-79
2021/11/09 11:34:25;;;;;;;15.38;9.48;;;11.50;99.90;;;;;;6145476;23;20172;-78
2021/11/09 11:36:51;;;;;;;12.38;7.35;;;11.50;99.90;;;;;;6143144;23;20221;-78
2021/11/09 11:39:21;;;;;;;13.88;7.28;;;11.50;99.90;;;;;;6139979;23;20662;-78
2021/11/09 11:41:51;;;;;;;11.95;6.97;;;11.50;99.90;;;;;;6143345;23;20162;-78
2021/11/09 11:44:22;;;;;;;14.32;7.90;;;11.50;99.90;;;;;;6144803;23;20246;-78
2021/11/09 11:47:11;;;;;;;11.75;6.65;;;11.50;99.90;;;;;;6143516;23;20155;-80
2021/11/09 11:49:40;;;;;;;14.88;7.55;;;11.50;99.90;;;;;;6136321;23;20171;-79
2021/11/09 11:52:08;;;;;;;13.75;6.80;;;11.50;99.90;;;;;;6143145;23;20588;-79
2021/11/09 11:54:53;;;;;;;13.93;6.97;;;11.60;99.90;;;;;;6144740;23;20171;-79
2021/11/09 11:57:37;;;;;;;14.65;7.50;;;11.50;99.90;;;;;;6144637;23;20180;-80
2021/11/09 12:00:28;;;;;;;11.10;6.85;;;11.40;99.90;;;;;;6145348;23;20592;-80
2021/11/09 12:02:54;;;;;;;12.93;7.00;;;11.30;99.90;;;;;;6147074;23;20228;-80
2021/11/09 12:05:41;;;;;;;11.40;7.03;;;11.30;99.90;;;;;;6145402;23;20486;-79
2021/11/09 12:08:12;;;;;;;16.33;7.85;;;11.40;99.90;;;;;;6145378;23;20163;-79
2021/11/09 12:10:51;;;;;;;12.05;7.07;;;11.50;99.90;;;;;;6145355;23;20152;-79
2021/11/09 12:13:20;;;;;;;14.98;7.15;;;11.70;99.90;;;;;;6146560;23;20634;-80
2021/11/09 12:15:53;;;;;;;16.58;7.28;;;11.90;99.90;;;;;;6146376;23;20151;-80
2021/11/09 12:18:28;;;;;;;13.00;6.97;;;12.20;99.90;;;;;;6144039;23;20160;-80
2021/11/09 12:21:14;;;;;;;13.45;7.35;;;12.20;99.90;;;;;;6142988;23;20169;-79
2021/11/09 12:23:39;;;;;;;10.77;6.72;;;12.20;99.90;;;;;;6133002;23;20565;-80
2021/11/09 12:26:46;;;;;;;11.20;7.03;;;12.30;99.90;;;;;;6142516;23;20166;-81
2021/11/09 12:29:36;;;;;;;11.40;7.13;;;12.20;99.90;;;;;;6141937;23;20670;-81
2021/11/09 12:32:21;;;;;;;13.07;6.32;;;12.10;99.90;;;;;;6142347;23;20160;-80
2021/11/09 12:35:11;;;;;;;11.45;5.13;;;12.00;99.90;;;;;;6141937;23;20234;-81
2021/11/09 12:37:44;;;;;;;9.45;6.15;;;11.90;99.90;;;;;;6142314;23;20151;-80
2021/11/09 12:40:43;;;;;;;11.52;5.55;;;11.90;99.90;;;;;;6144455;23;20585;-80
2021/11/09 12:43:43;;;;;;;7.97;3.92;;;11.90;99.90;;;;;;6147067;23;20195;-79
2021/11/09 12:46:12;;;;;;;5.20;4.40;;;12.00;99.90;;;;;;6140894;23;20170;-79
2021/11/09 12:48:51;;;;;;;7.95;4.20;;;11.90;99.90;;;;;;6145342;23;20608;-79
2021/11/09 12:51:21;;;;;;;8.57;4.55;;;11.70;99.90;;;;;;6145118;23;20151;-80
2021/11/09 12:53:48;;;;;;;7.07;4.28;;;11.70;99.90;;;;;;6144894;23;20462;-80
2021/11/09 12:56:41;;;;;;;8.95;4.30;;;11.70;99.90;;;;;;6146295;23;20564;-79
2021/11/09 13:02:14;;;;;;;8.60;4.35;;;11.60;99.90;;;;;;6147603;23;20167;-80
2021/11/09 13:09:54;;;;;;;7.82;4.10;;;11.50;99.90;;;;;;6147136;23;20151;-79
2021/11/09 13:12:30;;;;;;;4.95;3.63;;;11.50;99.90;;;;;;6144877;23;20151;-80
2021/11/09 13:15:05;;;;;;;7.80;3.80;;;11.50;99.90;;;;;;6144889;23;20684;-81
2021/11/09 13:17:36;;;;;;;6.82;3.58;;;11.50;99.90;;;;;;6146189;23;20179;-79
2021/11/09 13:22:54;;;;;;;14.10;7.13;;;11.40;99.90;;;;;;6146254;23;20530;-81
2021/11/09 13:25:41;;;;;;;7.97;4.22;;;11.30;99.90;;;;;;6145071;23;20160;-80
2021/11/09 13:28:15;;;;;;;4.10;2.60;;;11.30;99.90;;;;;;6144671;23;20160;-79
2021/11/09 13:30:43;;;;;;;6.07;2.70;;;11.40;99.90;;;;;;6146403;23;20540;-81
2021/11/09 13:33:09;;;;;;;6.25;3.17;;;11.30;99.90;;;;;;6144334;23;20535;-80
2021/11/09 13:35:40;;;;;;;5.57;3.35;;;11.20;99.90;;;;;;6147247;23;20218;-82
2021/11/09 13:38:12;;;;;;;4.60;3.03;;;11.20;99.90;;;;;;6149210;23;20151;-81
2021/11/09 13:40:45;;;;;;;10.57;6.07;;;11.10;99.90;;;;;;6150084;23;20151;-80
2021/11/09 13:43:14;;;;;;;10.43;6.97;;;11.20;99.90;;;;;;6148519;23;20195;-80
2021/11/09 13:45:40;;;;;;;12.50;7.90;;;11.20;99.90;;;;;;6150152;23;20611;-80
2021/11/09 13:48:17;;;;;;;11.77;6.00;;;11.20;99.90;;;;;;6148817;23;20981;-80
2021/11/09 13:50:51;;;;;;;6.97;3.78;;;11.20;99.90;;;;;;6147667;23;20218;-79
2021/11/09 13:53:48;;;;;;;8.10;3.47;;;11.20;99.90;;;;;;6146202;23;20194;-79
2021/11/09 13:56:25;;;;;;;5.82;3.00;;;11.20;99.90;;;;;;6144626;23;20562;-81
2021/11/09 13:58:57;;;;;;;6.35;3.78;;;11.20;99.90;;;;;;6147695;23;20143;-79
2021/11/09 14:01:38;;;;;;;8.25;3.55;;;11.20;99.90;;;;;;6145599;23;21023;-79
2021/11/09 14:04:21;;;;;;;8.10;3.85;;;11.20;99.90;;;;;;6147001;23;20218;-79
2021/11/09 14:07:10;;;;;;;5.65;3.30;;;11.20;99.90;;;;;;6145926;23;20205;-81
2021/11/09 14:10:10;;;;;;;9.07;3.58;;;11.20;99.90;;;;;;6145992;23;20231;-80
2021/11/09 14:16:05;;;;;;;4.38;2.78;;;11.20;99.90;;;;;;6083447;23;20607;-81
2021/11/09 14:18:31;;;;;;;5.70;3.25;;;11.10;99.90;;;;;;6061775;23;20153;-81
2021/11/09 14:20:59;;;;;;;6.13;3.83;;;11.10;99.90;;;;;;6112100;23;20958;-82
2021/11/09 14:23:35;;;;;;;9.10;5.45;;;11.00;99.90;;;;;;6146543;23;20747;-82
2021/11/09 14:26:25;;;;;;;5.90;3.22;;;11.00;99.90;;;;;;6147183;23;20154;-80
2021/11/09 14:28:54;;;;;;;6.53;3.08;;;11.00;99.90;;;;;;6140368;23;20542;-81
2021/11/09 14:31:27;;;;;;;5.45;3.17;;;10.90;99.90;;;;;;6143468;23;20163;-81
2021/11/09 14:34:09;;;;;;;5.70;4.10;;;10.90;99.90;;;;;;6146281;23;20628;-80
2021/11/09 14:36:36;;;;;;;10.50;3.88;;;10.90;99.90;;;;;;6144458;23;20155;-79
2021/11/09 14:39:12;;;;;;;3.47;2.67;;;10.80;99.90;;;;;;6143781;23;20242;-81
2021/11/09 14:44:53;;;;;;;5.43;2.95;;;10.70;99.90;;;;;;6146032;23;20191;-80
2021/11/09 14:47:19;;;;;;;6.55;2.65;;;10.60;99.90;;;;;;6147378;23;20926;-80
2021/11/09 14:49:56;;;;;;;6.32;3.28;;;10.50;99.90;;;;;;6147300;23;20616;-78
2021/11/09 14:52:26;;;;;;;4.78;3.30;;;10.30;99.90;;;;;;6147223;23;20235;-79
2021/11/09 14:54:55;;;;;;;5.15;2.78;;;10.20;99.90;;;;;;6148168;23;20179;-79
2021/11/09 14:57:32;;;;;;;5.63;3.03;;;10.10;99.90;;;;;;6147763;23;20234;-80
2021/11/09 15:00:04;;;;;;;4.90;2.50;;;10.00;99.90;;;;;;6148130;23;20654;-79
2021/11/09 15:02:29;;;;;;;6.05;2.60;;;9.90;99.90;;;;;;6148305;23;20183;-79
2021/11/09 15:04:55;;;;;;;5.60;3.00;;;9.70;99.90;;;;;;6147499;23;20639;-80
2021/11/09 15:07:25;;;;;;;5.70;2.80;;;9.60;99.90;;;;;;6147838;23;20528;-81
2021/11/09 15:26:40;;;;;;;5.70;3.33;;;8.70;99.90;;;;;;6146494;23;20151;-81
2021/11/09 15:29:20;;;;;;;5.90;3.33;;;8.60;99.90;;;;;;6146265;23;20159;-79
2021/11/09 15:34:26;;;;;;;6.20;3.70;;;8.30;99.90;;;;;;6148011;23;20183;-81
2021/11/09 15:37:11;;;;;;;6.70;3.70;;;8.20;99.90;;;;;;6145827;23;20161;-81
2021/11/09 15:39:37;;;;;;;5.17;3.03;;;8.20;99.90;;;;;;6147378;23;20151;-81
2021/11/09 15:42:03;;;;;;;5.73;3.30;;;8.00;99.90;;;;;;6147483;23;20353;-81
2021/11/09 15:44:30;;;;;;;5.47;3.30;;;7.90;99.90;;;;;;6147292;23;20518;-80
2021/11/09 15:46:57;;;;;;;4.10;3.10;;;7.80;99.90;;;;;;6147629;23;20175;-80
2021/11/09 15:49:25;;;;;;;6.83;3.60;;;7.70;99.90;;;;;;6145564;23;20160;-82
2021/11/09 15:51:51;;;;;;;6.23;3.87;;;7.70;99.90;;;;;;6149289;23;20542;-81
2021/11/09 15:54:16;;;;;;;6.47;3.43;;;7.60;99.90;;;;;;6146697;23;20190;-81
2021/11/09 15:56:43;;;;;;;7.13;4.03;;;7.50;99.90;;;;;;6146456;23;20173;-81
2021/11/09 15:59:10;;;;;;;8.00;3.73;;;7.40;99.90;;;;;;6148285;23;20187;-81